Time,TemperatureF,DewpointF,PressureIn,WindDirection,WindDirectionDegrees,WindSpeedMPH,WindSpeedGustMPH,Humidity,HourlyPrecipIn,Conditions,Clouds,dailyrainin,SoftwareType,DateUTC
2013-06-16 00:11:00,54.2,49.0,29.94,SSE,166,0.0,-999.0,82,-99.99,,,0.00,weatherlink.com 1.10,2013-06-16 07:11:00,
2013-06-16 00:41:00,53.1,48.0,29.95,SSE,166,0.0,-999.0,83,-99.99,,,0.00,weatherlink.com 1.10,2013-06-16 07:41:00,
2013-06-16 00:56:00,52.5,48.0,29.95,SSE,166,0.0,-999.0,83,-99.99,,,0.00,weatherlink.com 1.10,2013-06-16 07:56:00,
2013-06-16 01:12:00,51.9,47.0,29.95,SSE,166,0.0,-999.0,84,-99.99,,,0.00,weatherlink.com 1.10,2013-06-16 08:12:00,
2013-06-16 01:31:00,51.3,47.0,29.95,SSE,166,0.0,-999.0,85,-99.99,,,0.00,weatherlink.com 1.10,2013-06-16 08:31:00,
2013-06-16 01:58:00,50.5,47.0,29.95,SSE,166,0.0,-999.0,86,-99.99,,,0.00,weatherlink.com 1.10,2013-06-16 08:58:00,
2013-06-16 02:59:00,49.4,46.0,29.95,SSE,166,0.0,-999.0,88,-99.99,,,0.00,weatherlink.com 1.10,2013-06-16 09:59:00,
2013-06-16 03:13:00,48.9,45.0,29.95,SSE,166,0.0,-999.0,87,-99.99,,,0.00,weatherlink.com 1.10,2013-06-16 10:13:00,
2013-06-16 03:58:00,48.0,45.0,29.95,SSE,166,0.0,-999.0,88,-99.99,,,0.00,weatherlink.com 1.10,2013-06-16 10:58:00,
2013-06-16 04:12:00,47.9,45.0,29.95,SSE,166,0.0,-999.0,88,-99.99,,,0.00,weatherlink.com 1.10,2013-06-16 11:12:00,
2013-06-16 04:27:00,47.7,45.0,29.96,SSE,166,0.0,-999.0,89,-99.99,,,0.00,weatherlink.com 1.10,2013-06-16 11:27:00,
2013-06-16 04:43:00,47.3,44.0,29.95,SSE,166,0.0,-999.0,89,-99.99,,,0.00,weatherlink.com 1.10,2013-06-16 11:43:00,
2013-06-16 04:57:00,47.1,44.0,29.96,SSE,166,0.0,-999.0,89,-99.99,,,0.00,weatherlink.com 1.10,2013-06-16 11:57:00,
2013-06-16 05:12:00,47.0,44.0,29.96,SSE,166,0.0,-999.0,89,-99.99,,,0.00,weatherlink.com 1.10,2013-06-16 12:12:00,
2013-06-16 05:43:00,46.4,43.0,29.97,SSE,166,0.0,-999.0,89,-99.99,,,0.00,weatherlink.com 1.10,2013-06-16 12:43:00,
2013-06-16 05:58:00,46.0,43.0,29.98,SSE,166,0.0,-999.0,89,-99.99,,,0.00,weatherlink.com 1.10,2013-06-16 12:58:00,
2013-06-16 07:44:00,53.8,51.0,30.00,South,169,0.0,-999.0,90,-99.99,,,0.00,weatherlink.com 1.10,2013-06-16 14:44:00,
2013-06-16 07:59:00,55.4,51.0,30.00,South,169,0.0,-999.0,86,-99.99,,,0.00,weatherlink.com 1.10,2013-06-16 14:59:00,
2013-06-16 08:13:00,56.9,51.0,30.01,SW,235,0.0,-999.0,80,-99.99,,,0.00,weatherlink.com 1.10,2013-06-16 15:13:00,
2013-06-16 08:31:00,58.9,50.0,30.01,SSE,158,1.0,-999.0,73,-99.99,,,0.00,weatherlink.com 1.10,2013-06-16 15:31:00,
2013-06-16 08:44:00,60.2,50.0,30.01,SSE,158,0.0,-999.0,70,-99.99,,,0.00,weatherlink.com 1.10,2013-06-16 15:44:00,
2013-06-16 09:00:00,62.1,50.0,30.02,South,170,0.0,-999.0,65,-99.99,,,0.00,weatherlink.com 1.10,2013-06-16 16:00:00,
2013-06-16 09:15:00,64.0,51.0,30.02,East,90,3.0,-999.0,62,-99.99,,,0.00,weatherlink.com 1.10,2013-06-16 16:15:00,
2013-06-16 09:29:00,65.8,50.0,30.02,East,90,0.0,-999.0,58,-99.99,,,0.00,weatherlink.com 1.10,2013-06-16 16:29:00,
2013-06-16 10:01:00,70.1,52.0,30.01,ESE,109,0.0,-999.0,52,-99.99,,,0.00,weatherlink.com 1.10,2013-06-16 17:01:00,
2013-06-16 10:29:00,73.3,51.0,30.00,SE,145,0.0,-999.0,46,-99.99,,,0.00,weatherlink.com 1.10,2013-06-16 17:29:00,
2013-06-16 10:47:00,76.0,51.0,30.00,SE,145,0.0,-999.0,41,-99.99,,,0.00,weatherlink.com 1.10,2013-06-16 17:47:00,
2013-06-16 10:59:00,77.9,49.0,30.00,ENE,61,0.0,-999.0,36,-99.99,,,0.00,weatherlink.com 1.10,2013-06-16 17:59:00,
2013-06-16 11:48:00,82.4,50.0,30.00,NNE,32,1.0,-999.0,32,-99.99,,,0.00,weatherlink.com 1.10,2013-06-16 18:48:00,
2013-06-16 12:00:00,83.4,51.0,30.00,NW,323,0.0,-999.0,32,-99.99,,,0.00,weatherlink.com 1.10,2013-06-16 19:00:00,
2013-06-16 12:17:00,84.7,50.0,29.99,North,355,3.0,-999.0,30,-99.99,,,0.00,weatherlink.com 1.10,2013-06-16 19:17:00,
2013-06-16 12:31:00,86.1,49.0,29.98,ENE,76,0.0,-999.0,28,-99.99,,,0.00,weatherlink.com 1.10,2013-06-16 19:31:00,
2013-06-16 12:46:00,86.7,52.0,29.98,ENE,59,0.0,-999.0,30,-99.99,,,0.00,weatherlink.com 1.10,2013-06-16 19:46:00,
2013-06-16 13:06:00,88.2,49.0,29.98,SSE,166,0.0,-999.0,26,-99.99,,,0.00,weatherlink.com 1.10,2013-06-16 20:06:00,
2013-06-16 13:15:00,88.8,48.0,29.97,NNW,327,0.0,-999.0,24,-99.99,,,0.00,weatherlink.com 1.10,2013-06-16 20:15:00,
2013-06-16 14:01:00,90.3,44.0,29.97,NW,320,0.0,-999.0,20,-99.99,,,0.00,weatherlink.com 1.10,2013-06-16 21:01:00,
2013-06-16 14:15:00,91.0,43.0,29.97,NW,315,1.0,-999.0,19,-99.99,,,0.00,weatherlink.com 1.10,2013-06-16 21:15:00,
2013-06-16 14:31:00,91.6,46.0,29.96,WNW,286,1.0,-999.0,21,-99.99,,,0.00,weatherlink.com 1.10,2013-06-16 21:31:00,
2013-06-16 14:46:00,91.2,46.0,29.96,West,259,7.0,-999.0,21,-99.99,,,0.00,weatherlink.com 1.10,2013-06-16 21:46:00,
2013-06-16 15:03:00,90.1,48.0,29.96,SW,229,7.0,-999.0,23,-99.99,,,0.00,weatherlink.com 1.10,2013-06-16 22:03:00,
2013-06-16 15:16:00,89.9,49.0,29.96,West,280,4.0,-999.0,24,-99.99,,,0.00,weatherlink.com 1.10,2013-06-16 22:16:00,
2013-06-16 15:31:00,89.9,49.0,29.96,West,270,6.0,-999.0,24,-99.99,,,0.00,weatherlink.com 1.10,2013-06-16 22:31:00,
2013-06-16 15:47:00,89.7,50.0,29.96,West,271,2.0,-999.0,25,-99.99,,,0.00,weatherlink.com 1.10,2013-06-16 22:47:00,
2013-06-16 16:01:00,89.3,50.0,29.96,WNW,283,4.0,-999.0,26,-99.99,,,0.00,weatherlink.com 1.10,2013-06-16 23:01:00,
2013-06-16 16:16:00,89.3,50.0,29.96,WSW,246,5.0,-999.0,26,-99.99,,,0.00,weatherlink.com 1.10,2013-06-16 23:16:00,
2013-06-16 16:33:00,88.8,50.0,29.96,WSW,258,0.0,-999.0,26,-99.99,,,0.00,weatherlink.com 1.10,2013-06-16 23:33:00,
2013-06-16 16:46:00,87.8,49.0,29.96,NW,308,3.0,-999.0,26,-99.99,,,0.00,weatherlink.com 1.10,2013-06-16 23:46:00,
2013-06-16 17:01:00,87.8,49.0,29.96,West,269,4.0,-999.0,26,-99.99,,,0.00,weatherlink.com 1.10,2013-06-17 00:01:00,
2013-06-16 17:16:00,87.4,48.0,29.96,WNW,296,4.0,-999.0,25,-99.99,,,0.00,weatherlink.com 1.10,2013-06-17 00:16:00,
2013-06-16 17:31:00,86.7,47.0,29.96,WSW,254,4.0,-999.0,25,-99.99,,,0.00,weatherlink.com 1.10,2013-06-17 00:31:00,
2013-06-16 17:46:00,85.7,47.0,29.96,WNW,289,0.0,-999.0,26,-99.99,,,0.00,weatherlink.com 1.10,2013-06-17 00:46:00,
2013-06-16 18:02:00,84.7,47.0,29.96,WNW,291,5.0,-999.0,27,-99.99,,,0.00,weatherlink.com 1.10,2013-06-17 01:02:00,
2013-06-16 18:16:00,84.3,47.0,29.96,West,264,4.0,-999.0,27,-99.99,,,0.00,weatherlink.com 1.10,2013-06-17 01:16:00,
2013-06-16 18:32:00,83.4,47.0,29.96,West,272,3.0,-999.0,28,-99.99,,,0.00,weatherlink.com 1.10,2013-06-17 01:32:00,
2013-06-16 18:47:00,82.6,46.0,29.96,NW,313,0.0,-999.0,28,-99.99,,,0.00,weatherlink.com 1.10,2013-06-17 01:47:00,
2013-06-16 19:46:00,80.3,43.0,29.97,NW,322,0.0,-999.0,27,-99.99,,,0.00,weatherlink.com 1.10,2013-06-17 02:46:00,
2013-06-16 20:33:00,77.7,41.0,29.97,WNW,303,0.0,-999.0,27,-99.99,,,0.00,weatherlink.com 1.10,2013-06-17 03:33:00,
2013-06-16 20:50:00,76.5,42.0,29.98,WNW,303,0.0,-999.0,29,-99.99,,,0.00,weatherlink.com 1.10,2013-06-17 03:50:00,
2013-06-16 21:02:00,75.4,43.0,29.98,WNW,303,0.0,-999.0,31,-99.99,,,0.00,weatherlink.com 1.10,2013-06-17 04:02:00,
2013-06-16 21:19:00,73.3,43.0,29.98,NW,305,0.0,-999.0,34,-99.99,,,0.00,weatherlink.com 1.10,2013-06-17 04:19:00,
2013-06-16 21:33:00,72.3,44.0,29.99,NW,306,0.0,-999.0,37,-99.99,,,0.00,weatherlink.com 1.10,2013-06-17 04:33:00,
2013-06-16 21:52:00,70.9,45.0,30.00,NW,306,0.0,-999.0,40,-99.99,,,0.00,weatherlink.com 1.10,2013-06-17 04:52:00,
2013-06-16 22:02:00,70.4,45.0,30.00,NW,306,0.0,-999.0,40,-99.99,,,0.00,weatherlink.com 1.10,2013-06-17 05:02:00,
2013-06-16 22:32:00,68.1,46.0,30.00,NW,306,0.0,-999.0,45,-99.99,,,0.00,weatherlink.com 1.10,2013-06-17 05:32:00,
2013-06-16 22:49:00,66.4,45.0,30.00,NW,306,0.0,-999.0,47,-99.99,,,0.00,weatherlink.com 1.10,2013-06-17 05:49:00,
2013-06-16 23:34:00,62.9,45.0,30.00,NW,306,0.0,-999.0,53,-99.99,,,0.00,weatherlink.com 1.10,2013-06-17 06:34:00,